sensor_id;sensor_type;location;lat;lon;timestamp;P1;P2;P0
45871;PMS5003;32333;55.844;-3.210;2023-02-27T00:01:46;8;6;
45871;PMS5003;32333;55.844;-3.210;2023-02-27T00:04:13;10;8;
45871;PMS5003;32333;55.844;-3.210;2023-02-27T00:06:41;6;6;
45871;PMS5003;32333;55.844;-3.210;2023-02-27T00:09:08;8;8;
45871;PMS5003;32333;55.844;-3.210;2023-02-27T00:11:35;10;9;
45871;PMS5003;32333;55.844;-3.210;2023-02-27T00:14:34;18;17;
45871;PMS5003;32333;55.844;-3.210;2023-02-27T00:17:02;16;13;
45871;PMS5003;32333;55.844;-3.210;2023-02-27T00:19:29;9;6;
45871;PMS5003;32333;55.844;-3.210;2023-02-27T00:21:56;8;6;
45871;PMS5003;32333;55.844;-3.210;2023-02-27T00:24:24;6;6;
45871;PMS5003;32333;55.844;-3.210;2023-02-27T00:26:51;8;6;
45871;PMS5003;32333;55.844;-3.210;2023-02-27T00:29:18;8;6;
45871;PMS5003;32333;55.844;-3.210;2023-02-27T00:31:45;12;12;
45871;PMS5003;32333;55.844;-3.210;2023-02-27T00:34:13;12;10;
45871;PMS5003;32333;55.844;-3.210;2023-02-27T00:36:40;14;13;
45871;PMS5003;32333;55.844;-3.210;2023-02-27T00:39:07;11;9;
45871;PMS5003;32333;55.844;-3.210;2023-02-27T00:41:34;8;7;
45871;PMS5003;32333;55.844;-3.210;2023-02-27T00:44:34;4;4;
45871;PMS5003;32333;55.844;-3.210;2023-02-27T00:47:01;7;5;
45871;PMS5003;32333;55.844;-3.210;2023-02-27T00:49:28;7;5;
45871;PMS5003;32333;55.844;-3.210;2023-02-27T00:51:56;5;5;
45871;PMS5003;32333;55.844;-3.210;2023-02-27T00:54:23;5;5;
45871;PMS5003;32333;55.844;-3.210;2023-02-27T00:56:51;6;5;
45871;PMS5003;32333;55.844;-3.210;2023-02-27T00:59:18;2;2;
45871;PMS5003;32333;55.844;-3.210;2023-02-27T01:01:46;4;4;
45871;PMS5003;32333;55.844;-3.210;2023-02-27T01:04:14;1;1;
45871;PMS5003;32333;55.844;-3.210;2023-02-27T01:06:42;5;4;
45871;PMS5003;32333;55.844;-3.210;2023-02-27T01:09:09;6;5;
45871;PMS5003;32333;55.844;-3.210;2023-02-27T01:11:36;5;4;
45871;PMS5003;32333;55.844;-3.210;2023-02-27T01:14:34;6;5;
45871;PMS5003;32333;55.844;-3.210;2023-02-27T01:17:01;3;3;
45871;PMS5003;32333;55.844;-3.210;2023-02-27T01:19:29;4;4;
45871;PMS5003;32333;55.844;-3.210;2023-02-27T01:21:57;6;6;
45871;PMS5003;32333;55.844;-3.210;2023-02-27T01:24:24;4;4;
45871;PMS5003;32333;55.844;-3.210;2023-02-27T01:26:52;4;2;
45871;PMS5003;32333;55.844;-3.210;2023-02-27T01:29:19;6;4;
45871;PMS5003;32333;55.844;-3.210;2023-02-27T01:31:46;5;4;
45871;PMS5003;32333;55.844;-3.210;2023-02-27T01:34:14;5;5;
45871;PMS5003;32333;55.844;-3.210;2023-02-27T01:36:42;5;5;
45871;PMS5003;32333;55.844;-3.210;2023-02-27T01:39:09;6;5;
45871;PMS5003;32333;55.844;-3.210;2023-02-27T01:41:36;6;6;
45871;PMS5003;32333;55.844;-3.210;2023-02-27T01:45:00;6;5;
45871;PMS5003;32333;55.844;-3.210;2023-02-27T01:47:42;6;6;
45871;PMS5003;32333;55.844;-3.210;2023-02-27T01:50:12;5;4;
45871;PMS5003;32333;55.844;-3.210;2023-02-27T01:52:41;5;5;
45871;PMS5003;32333;55.844;-3.210;2023-02-27T01:55:11;4;4;
45871;PMS5003;32333;55.844;-3.210;2023-02-27T01:57:40;5;4;
45871;PMS5003;32333;55.844;-3.210;2023-02-27T02:00:10;5;5;
45871;PMS5003;32333;55.844;-3.210;2023-02-27T02:02:40;8;6;
45871;PMS5003;32333;55.844;-3.210;2023-02-27T02:05:12;4;4;
45871;PMS5003;32333;55.844;-3.210;2023-02-27T02:07:41;6;5;
45871;PMS5003;32333;55.844;-3.210;2023-02-27T02:10:11;5;5;
45871;PMS5003;32333;55.844;-3.210;2023-02-27T02:14:34;6;6;
45871;PMS5003;32333;55.844;-3.210;2023-02-27T02:17:04;5;2;
45871;PMS5003;32333;55.844;-3.210;2023-02-27T02:19:50;9;6;
45871;PMS5003;32333;55.844;-3.210;2023-02-27T02:22:44;7;7;
45871;PMS5003;32333;55.844;-3.210;2023-02-27T02:25:44;6;4;
45871;PMS5003;32333;55.844;-3.210;2023-02-27T02:26:57;5;4;
45871;PMS5003;32333;55.844;-3.210;2023-02-27T02:29:40;6;6;
45871;PMS5003;32333;55.844;-3.210;2023-02-27T02:32:26;4;4;
45871;PMS5003;32333;55.844;-3.210;2023-02-27T02:35:19;6;4;
45871;PMS5003;32333;55.844;-3.210;2023-02-27T02:38:16;5;4;
45871;PMS5003;32333;55.844;-3.210;2023-02-27T02:40:56;5;5;
45871;PMS5003;32333;55.844;-3.210;2023-02-27T02:44:37;5;4;
45871;PMS5003;32333;55.844;-3.210;2023-02-27T02:47:16;2;2;
45871;PMS5003;32333;55.844;-3.210;2023-02-27T02:49:54;5;4;
45871;PMS5003;32333;55.844;-3.210;2023-02-27T02:52:27;5;4;
45871;PMS5003;32333;55.844;-3.210;2023-02-27T02:55:05;4;4;
45871;PMS5003;32333;55.844;-3.210;2023-02-27T02:57:36;4;4;
45871;PMS5003;32333;55.844;-3.210;2023-02-27T03:00:09;5;5;
45871;PMS5003;32333;55.844;-3.210;2023-02-27T03:02:43;7;7;
45871;PMS5003;32333;55.844;-3.210;2023-02-27T03:05:14;4;4;
45871;PMS5003;32333;55.844;-3.210;2023-02-27T03:07:48;7;4;
45871;PMS5003;32333;55.844;-3.210;2023-02-27T03:10:20;9;6;
45871;PMS5003;32333;55.844;-3.210;2023-02-27T03:14:35;4;4;
45871;PMS5003;32333;55.844;-3.210;2023-02-27T03:17:08;4;4;
45871;PMS5003;32333;55.844;-3.210;2023-02-27T03:19:50;4;4;
45871;PMS5003;32333;55.844;-3.210;2023-02-27T03:22:22;7;4;
45871;PMS5003;32333;55.844;-3.210;2023-02-27T03:24:56;3;3;
45871;PMS5003;32333;55.844;-3.210;2023-02-27T03:27:28;3;3;
45871;PMS5003;32333;55.844;-3.210;2023-02-27T03:30:00;4;3;
45871;PMS5003;32333;55.844;-3.210;2023-02-27T03:32:34;3;3;
45871;PMS5003;32333;55.844;-3.210;2023-02-27T03:35:07;2;2;
45871;PMS5003;32333;55.844;-3.210;2023-02-27T03:37:38;4;3;
45871;PMS5003;32333;55.844;-3.210;2023-02-27T03:40:18;4;4;
45871;PMS5003;32333;55.844;-3.210;2023-02-27T03:44:35;1;1;
45871;PMS5003;32333;55.844;-3.210;2023-02-27T03:47:12;2;2;
45871;PMS5003;32333;55.844;-3.210;2023-02-27T03:49:39;2;1;
45871;PMS5003;32333;55.844;-3.210;2023-02-27T03:52:07;2;2;
45871;PMS5003;32333;55.844;-3.210;2023-02-27T03:54:35;2;2;
45871;PMS5003;32333;55.844;-3.210;2023-02-27T03:57:07;1;1;
45871;PMS5003;32333;55.844;-3.210;2023-02-27T03:59:35;1;1;
45871;PMS5003;32333;55.844;-3.210;2023-02-27T04:02:04;4;4;
45871;PMS5003;32333;55.844;-3.210;2023-02-27T04:04:32;4;4;
45871;PMS5003;32333;55.844;-3.210;2023-02-27T04:07:01;4;4;
45871;PMS5003;32333;55.844;-3.210;2023-02-27T04:09:36;2;2;
45871;PMS5003;32333;55.844;-3.210;2023-02-27T04:14:37;7;7;
45871;PMS5003;32333;55.844;-3.210;2023-02-27T04:17:13;5;4;
45871;PMS5003;32333;55.844;-3.210;2023-02-27T04:19:51;1;1;
45871;PMS5003;32333;55.844;-3.210;2023-02-27T04:22:32;1;1;
45871;PMS5003;32333;55.844;-3.210;2023-02-27T04:25:09;1;1;
45871;PMS5003;32333;55.844;-3.210;2023-02-27T04:27:49;4;2;
45871;PMS5003;32333;55.844;-3.210;2023-02-27T04:30:24;1;1;
45871;PMS5003;32333;55.844;-3.210;2023-02-27T04:33:00;2;1;
45871;PMS5003;32333;55.844;-3.210;2023-02-27T04:35:34;4;2;
45871;PMS5003;32333;55.844;-3.210;2023-02-27T04:38:08;1;1;
45871;PMS5003;32333;55.844;-3.210;2023-02-27T04:40:44;4;4;
45871;PMS5003;32333;55.844;-3.210;2023-02-27T04:44:34;2;2;
45871;PMS5003;32333;55.844;-3.210;2023-02-27T04:47:03;4;1;
45871;PMS5003;32333;55.844;-3.210;2023-02-27T04:49:36;3;1;
45871;PMS5003;32333;55.844;-3.210;2023-02-27T04:52:09;1;1;
45871;PMS5003;32333;55.844;-3.210;2023-02-27T04:54:40;1;1;
45871;PMS5003;32333;55.844;-3.210;2023-02-27T04:57:15;1;1;
45871;PMS5003;32333;55.844;-3.210;2023-02-27T04:59:45;1;1;
45871;PMS5003;32333;55.844;-3.210;2023-02-27T05:02:18;1;1;
45871;PMS5003;32333;55.844;-3.210;2023-02-27T05:04:49;4;4;
45871;PMS5003;32333;55.844;-3.210;2023-02-27T05:07:22;6;6;
45871;PMS5003;32333;55.844;-3.210;2023-02-27T05:09:52;5;5;
45871;PMS5003;32333;55.844;-3.210;2023-02-27T05:14:35;7;7;
45871;PMS5003;32333;55.844;-3.210;2023-02-27T05:17:08;2;2;
45871;PMS5003;32333;55.844;-3.210;2023-02-27T05:19:40;4;4;
45871;PMS5003;32333;55.844;-3.210;2023-02-27T05:22:12;4;4;
45871;PMS5003;32333;55.844;-3.210;2023-02-27T05:24:48;4;4;
45871;PMS5003;32333;55.844;-3.210;2023-02-27T05:27:26;7;4;
45871;PMS5003;32333;55.844;-3.210;2023-02-27T05:30:00;9;6;
45871;PMS5003;32333;55.844;-3.210;2023-02-27T05:32:35;6;4;
45871;PMS5003;32333;55.844;-3.210;2023-02-27T05:35:10;6;6;
45871;PMS5003;32333;55.844;-3.210;2023-02-27T05:37:42;5;5;
45871;PMS5003;32333;55.844;-3.210;2023-02-27T05:40:13;5;4;
45871;PMS5003;32333;55.844;-3.210;2023-02-27T05:44:34;5;5;
45871;PMS5003;32333;55.844;-3.210;2023-02-27T05:47:07;12;10;
45871;PMS5003;32333;55.844;-3.210;2023-02-27T05:49:38;7;7;
45871;PMS5003;32333;55.844;-3.210;2023-02-27T05:52:10;10;10;
45871;PMS5003;32333;55.844;-3.210;2023-02-27T05:54:41;5;5;
45871;PMS5003;32333;55.844;-3.210;2023-02-27T05:57:17;7;7;
45871;PMS5003;32333;55.844;-3.210;2023-02-27T05:59:53;7;7;
45871;PMS5003;32333;55.844;-3.210;2023-02-27T06:02:25;6;5;
45871;PMS5003;32333;55.844;-3.210;2023-02-27T06:04:53;7;7;
45871;PMS5003;32333;55.844;-3.210;2023-02-27T06:07:21;5;5;
45871;PMS5003;32333;55.844;-3.210;2023-02-27T06:09:49;3;3;
45871;PMS5003;32333;55.844;-3.210;2023-02-27T06:14:34;5;5;
45871;PMS5003;32333;55.844;-3.210;2023-02-27T06:17:02;9;7;
45871;PMS5003;32333;55.844;-3.210;2023-02-27T06:19:29;6;6;
45871;PMS5003;32333;55.844;-3.210;2023-02-27T06:21:56;6;5;
45871;PMS5003;32333;55.844;-3.210;2023-02-27T06:24:23;6;6;
45871;PMS5003;32333;55.844;-3.210;2023-02-27T06:26:50;5;5;
45871;PMS5003;32333;55.844;-3.210;2023-02-27T06:29:18;9;7;
45871;PMS5003;32333;55.844;-3.210;2023-02-27T06:31:45;6;6;
45871;PMS5003;32333;55.844;-3.210;2023-02-27T06:34:12;5;5;
45871;PMS5003;32333;55.844;-3.210;2023-02-27T06:36:40;7;6;
45871;PMS5003;32333;55.844;-3.210;2023-02-27T06:39:08;7;6;
45871;PMS5003;32333;55.844;-3.210;2023-02-27T06:41:35;8;8;
45871;PMS5003;32333;55.844;-3.210;2023-02-27T06:44:34;8;8;
45871;PMS5003;32333;55.844;-3.210;2023-02-27T06:47:01;10;8;
45871;PMS5003;32333;55.844;-3.210;2023-02-27T06:49:28;7;7;
45871;PMS5003;32333;55.844;-3.210;2023-02-27T06:51:56;7;6;
45871;PMS5003;32333;55.844;-3.210;2023-02-27T06:54:24;10;7;
45871;PMS5003;32333;55.844;-3.210;2023-02-27T06:56:51;8;8;
45871;PMS5003;32333;55.844;-3.210;2023-02-27T06:59:18;12;10;
45871;PMS5003;32333;55.844;-3.210;2023-02-27T07:01:46;12;12;
45871;PMS5003;32333;55.844;-3.210;2023-02-27T07:04:13;15;12;
45871;PMS5003;32333;55.844;-3.210;2023-02-27T07:06:42;11;11;
45871;PMS5003;32333;55.844;-3.210;2023-02-27T07:09:10;10;10;
45871;PMS5003;32333;55.844;-3.210;2023-02-27T07:11:37;11;11;
45871;PMS5003;32333;55.844;-3.210;2023-02-27T07:14:34;17;15;
45871;PMS5003;32333;55.844;-3.210;2023-02-27T07:17:01;16;15;
45871;PMS5003;32333;55.844;-3.210;2023-02-27T07:19:29;11;11;
45871;PMS5003;32333;55.844;-3.210;2023-02-27T07:21:58;16;16;
45871;PMS5003;32333;55.844;-3.210;2023-02-27T07:24:25;18;16;
45871;PMS5003;32333;55.844;-3.210;2023-02-27T07:26:53;21;18;
45871;PMS5003;32333;55.844;-3.210;2023-02-27T07:29:21;22;18;
45871;PMS5003;32333;55.844;-3.210;2023-02-27T07:31:50;17;17;
45871;PMS5003;32333;55.844;-3.210;2023-02-27T07:34:17;13;13;
45871;PMS5003;32333;55.844;-3.210;2023-02-27T07:36:44;14;13;
45871;PMS5003;32333;55.844;-3.210;2023-02-27T07:39:12;14;11;
45871;PMS5003;32333;55.844;-3.210;2023-02-27T07:41:39;15;13;
45871;PMS5003;32333;55.844;-3.210;2023-02-27T07:44:34;17;14;
45871;PMS5003;32333;55.844;-3.210;2023-02-27T07:47:03;14;12;
45871;PMS5003;32333;55.844;-3.210;2023-02-27T07:49:38;15;12;
45871;PMS5003;32333;55.844;-3.210;2023-02-27T07:52:06;19;17;
45871;PMS5003;32333;55.844;-3.210;2023-02-27T07:54:42;13;12;
45871;PMS5003;32333;55.844;-3.210;2023-02-27T07:57:09;14;13;
45871;PMS5003;32333;55.844;-3.210;2023-02-27T07:59:36;16;13;
45871;PMS5003;32333;55.844;-3.210;2023-02-27T08:02:04;16;11;
45871;PMS5003;32333;55.844;-3.210;2023-02-27T08:04:31;14;12;
45871;PMS5003;32333;55.844;-3.210;2023-02-27T08:06:59;29;19;
45871;PMS5003;32333;55.844;-3.210;2023-02-27T08:09:26;14;12;
45871;PMS5003;32333;55.844;-3.210;2023-02-27T08:11:53;21;18;
45871;PMS5003;32333;55.844;-3.210;2023-02-27T08:14:34;13;13;
45871;PMS5003;32333;55.844;-3.210;2023-02-27T08:17:01;18;16;
45871;PMS5003;32333;55.844;-3.210;2023-02-27T08:19:29;19;19;
45871;PMS5003;32333;55.844;-3.210;2023-02-27T08:21:56;18;14;
45871;PMS5003;32333;55.844;-3.210;2023-02-27T08:24:23;15;15;
45871;PMS5003;32333;55.844;-3.210;2023-02-27T08:26:51;19;18;
45871;PMS5003;32333;55.844;-3.210;2023-02-27T08:29:18;18;17;
45871;PMS5003;32333;55.844;-3.210;2023-02-27T08:31:45;18;15;
45871;PMS5003;32333;55.844;-3.210;2023-02-27T08:34:13;22;18;
45871;PMS5003;32333;55.844;-3.210;2023-02-27T08:36:41;17;15;
45871;PMS5003;32333;55.844;-3.210;2023-02-27T08:39:08;16;14;
45871;PMS5003;32333;55.844;-3.210;2023-02-27T08:41:35;17;17;
45871;PMS5003;32333;55.844;-3.210;2023-02-27T08:44:34;19;17;
45871;PMS5003;32333;55.844;-3.210;2023-02-27T08:47:01;16;14;
45871;PMS5003;32333;55.844;-3.210;2023-02-27T08:49:29;17;15;
45871;PMS5003;32333;55.844;-3.210;2023-02-27T08:51:56;16;15;
45871;PMS5003;32333;55.844;-3.210;2023-02-27T08:54:24;16;14;
45871;PMS5003;32333;55.844;-3.210;2023-02-27T08:56:51;18;15;
45871;PMS5003;32333;55.844;-3.210;2023-02-27T08:59:18;13;12;
45871;PMS5003;32333;55.844;-3.210;2023-02-27T09:01:46;18;18;
45871;PMS5003;32333;55.844;-3.210;2023-02-27T09:04:13;15;14;
45871;PMS5003;32333;55.844;-3.210;2023-02-27T09:06:40;17;17;
45871;PMS5003;32333;55.844;-3.210;2023-02-27T09:09:08;17;14;
45871;PMS5003;32333;55.844;-3.210;2023-02-27T09:11:35;13;13;
45871;PMS5003;32333;55.844;-3.210;2023-02-27T09:14:34;19;19;
45871;PMS5003;32333;55.844;-3.210;2023-02-27T09:17:01;19;17;
45871;PMS5003;32333;55.844;-3.210;2023-02-27T09:19:29;12;12;
45871;PMS5003;32333;55.844;-3.210;2023-02-27T09:21:56;20;17;
45871;PMS5003;32333;55.844;-3.210;2023-02-27T09:24:25;18;17;
45871;PMS5003;32333;55.844;-3.210;2023-02-27T09:26:52;17;15;
45871;PMS5003;32333;55.844;-3.210;2023-02-27T09:29:19;18;17;
45871;PMS5003;32333;55.844;-3.210;2023-02-27T09:31:47;19;17;
45871;PMS5003;32333;55.844;-3.210;2023-02-27T09:34:14;18;17;
45871;PMS5003;32333;55.844;-3.210;2023-02-27T09:36:41;11;11;
45871;PMS5003;32333;55.844;-3.210;2023-02-27T09:39:09;19;15;
45871;PMS5003;32333;55.844;-3.210;2023-02-27T09:41:39;14;13;
45871;PMS5003;32333;55.844;-3.210;2023-02-27T09:44:36;14;14;
45871;PMS5003;32333;55.844;-3.210;2023-02-27T09:47:08;16;14;
45871;PMS5003;32333;55.844;-3.210;2023-02-27T09:49:43;13;13;
45871;PMS5003;32333;55.844;-3.210;2023-02-27T09:52:17;16;16;
45871;PMS5003;32333;55.844;-3.210;2023-02-27T09:54:45;13;11;
45871;PMS5003;32333;55.844;-3.210;2023-02-27T09:57:14;13;12;
45871;PMS5003;32333;55.844;-3.210;2023-02-27T09:59:46;13;12;
45871;PMS5003;32333;55.844;-3.210;2023-02-27T10:02:22;13;12;
45871;PMS5003;32333;55.844;-3.210;2023-02-27T10:05:01;12;10;
45871;PMS5003;32333;55.844;-3.210;2023-02-27T10:07:37;15;12;
45871;PMS5003;32333;55.844;-3.210;2023-02-27T10:10:12;13;10;
45871;PMS5003;32333;55.844;-3.210;2023-02-27T10:14:37;11;11;
45871;PMS5003;32333;55.844;-3.210;2023-02-27T10:17:11;16;13;
45871;PMS5003;32333;55.844;-3.210;2023-02-27T10:19:45;11;9;
45871;PMS5003;32333;55.844;-3.210;2023-02-27T10:22:17;13;12;
45871;PMS5003;32333;55.844;-3.210;2023-02-27T10:24:52;15;15;
45871;PMS5003;32333;55.844;-3.210;2023-02-27T10:27:23;16;15;
45871;PMS5003;32333;55.844;-3.210;2023-02-27T10:29:50;21;14;
45871;PMS5003;32333;55.844;-3.210;2023-02-27T10:32:21;11;11;
45871;PMS5003;32333;55.844;-3.210;2023-02-27T10:34:52;15;12;
45871;PMS5003;32333;55.844;-3.210;2023-02-27T10:37:23;15;14;
45871;PMS5003;32333;55.844;-3.210;2023-02-27T10:39:54;15;14;
45871;PMS5003;32333;55.844;-3.210;2023-02-27T10:44:34;15;12;
45871;PMS5003;32333;55.844;-3.210;2023-02-27T10:47:01;15;15;
45871;PMS5003;32333;55.844;-3.210;2023-02-27T10:49:29;11;11;
45871;PMS5003;32333;55.844;-3.210;2023-02-27T10:52:07;15;13;
45871;PMS5003;32333;55.844;-3.210;2023-02-27T10:54:36;9;9;
45871;PMS5003;32333;55.844;-3.210;2023-02-27T10:57:06;14;12;
45871;PMS5003;32333;55.844;-3.210;2023-02-27T10:59:48;15;14;
45871;PMS5003;32333;55.844;-3.210;2023-02-27T11:02:21;12;12;
45871;PMS5003;32333;55.844;-3.210;2023-02-27T11:04:51;17;16;
45871;PMS5003;32333;55.844;-3.210;2023-02-27T11:07:29;18;12;
45871;PMS5003;32333;55.844;-3.210;2023-02-27T11:10:00;13;12;
45871;PMS5003;32333;55.844;-3.210;2023-02-27T11:14:34;13;12;
45871;PMS5003;32333;55.844;-3.210;2023-02-27T11:17:19;12;10;
45871;PMS5003;32333;55.844;-3.210;2023-02-27T11:19:48;13;12;
45871;PMS5003;32333;55.844;-3.210;2023-02-27T11:22:15;16;15;
45871;PMS5003;32333;55.844;-3.210;2023-02-27T11:24:45;9;9;
45871;PMS5003;32333;55.844;-3.210;2023-02-27T11:27:17;16;10;
45871;PMS5003;32333;55.844;-3.210;2023-02-27T11:29:54;16;15;
45871;PMS5003;32333;55.844;-3.210;2023-02-27T11:32:23;21;16;
45871;PMS5003;32333;55.844;-3.210;2023-02-27T11:34:56;12;10;
45871;PMS5003;32333;55.844;-3.210;2023-02-27T11:37:25;12;12;
45871;PMS5003;32333;55.844;-3.210;2023-02-27T11:39:58;12;12;
45871;PMS5003;32333;55.844;-3.210;2023-02-27T11:44:34;18;16;
45871;PMS5003;32333;55.844;-3.210;2023-02-27T11:47:07;18;13;
45871;PMS5003;32333;55.844;-3.210;2023-02-27T11:49:41;12;10;
45871;PMS5003;32333;55.844;-3.210;2023-02-27T11:52:32;10;10;
45871;PMS5003;32333;55.844;-3.210;2023-02-27T11:55:09;12;10;
45871;PMS5003;32333;55.844;-3.210;2023-02-27T11:57:41;12;10;
45871;PMS5003;32333;55.844;-3.210;2023-02-27T12:00:15;16;12;
45871;PMS5003;32333;55.844;-3.210;2023-02-27T12:02:46;15;13;
45871;PMS5003;32333;55.844;-3.210;2023-02-27T12:05:23;12;10;
45871;PMS5003;32333;55.844;-3.210;2023-02-27T12:07:54;12;9;
45871;PMS5003;32333;55.844;-3.210;2023-02-27T12:10:27;10;9;
45871;PMS5003;32333;55.844;-3.210;2023-02-27T12:14:37;0;0;
45871;PMS5003;32333;55.844;-3.210;2023-02-27T12:17:14;9;6;
45871;PMS5003;32333;55.844;-3.210;2023-02-27T12:19:49;6;6;
45871;PMS5003;32333;55.844;-3.210;2023-02-27T12:22:28;6;6;
45871;PMS5003;32333;55.844;-3.210;2023-02-27T12:24:59;6;6;
45871;PMS5003;32333;55.844;-3.210;2023-02-27T12:27:33;6;4;
45871;PMS5003;32333;55.844;-3.210;2023-02-27T12:30:13;7;6;
45871;PMS5003;32333;55.844;-3.210;2023-02-27T12:32:46;8;7;
45871;PMS5003;32333;55.844;-3.210;2023-02-27T12:35:19;6;6;
45871;PMS5003;32333;55.844;-3.210;2023-02-27T12:37:50;7;6;
45871;PMS5003;32333;55.844;-3.210;2023-02-27T12:40:19;9;9;
45871;PMS5003;32333;55.844;-3.210;2023-02-27T12:44:39;0;0;
45871;PMS5003;32333;55.844;-3.210;2023-02-27T12:47:22;1;0;
45871;PMS5003;32333;55.844;-3.210;2023-02-27T12:49:57;0;0;
45871;PMS5003;32333;55.844;-3.210;2023-02-27T12:52:34;0;0;
45871;PMS5003;32333;55.844;-3.210;2023-02-27T12:55:11;7;7;
45871;PMS5003;32333;55.844;-3.210;2023-02-27T12:57:47;7;6;
45871;PMS5003;32333;55.844;-3.210;2023-02-27T13:00:27;4;4;
45871;PMS5003;32333;55.844;-3.210;2023-02-27T13:03:00;4;4;
45871;PMS5003;32333;55.844;-3.210;2023-02-27T13:05:38;7;4;
45871;PMS5003;32333;55.844;-3.210;2023-02-27T13:08:16;4;4;
45871;PMS5003;32333;55.844;-3.210;2023-02-27T13:10:56;6;6;
45871;PMS5003;32333;55.844;-3.210;2023-02-27T13:14:39;0;0;
45871;PMS5003;32333;55.844;-3.210;2023-02-27T13:17:16;1;1;
45871;PMS5003;32333;55.844;-3.210;2023-02-27T13:19:49;0;0;
45871;PMS5003;32333;55.844;-3.210;2023-02-27T13:22:24;0;0;
45871;PMS5003;32333;55.844;-3.210;2023-02-27T13:24:58;0;0;
45871;PMS5003;32333;55.844;-3.210;2023-02-27T13:27:31;0;0;
45871;PMS5003;32333;55.844;-3.210;2023-02-27T13:30:06;0;0;
45871;PMS5003;32333;55.844;-3.210;2023-02-27T13:32:40;0;0;
45871;PMS5003;32333;55.844;-3.210;2023-02-27T13:35:18;0;0;
45871;PMS5003;32333;55.844;-3.210;2023-02-27T13:37:53;0;0;
45871;PMS5003;32333;55.844;-3.210;2023-02-27T13:40:28;0;0;
45871;PMS5003;32333;55.844;-3.210;2023-02-27T13:44:38;0;0;
45871;PMS5003;32333;55.844;-3.210;2023-02-27T13:47:39;0;0;
45871;PMS5003;32333;55.844;-3.210;2023-02-27T13:50:47;0;0;
45871;PMS5003;32333;55.844;-3.210;2023-02-27T13:53:17;0;0;
45871;PMS5003;32333;55.844;-3.210;2023-02-27T13:55:47;0;0;
45871;PMS5003;32333;55.844;-3.210;2023-02-27T13:58:17;1;1;
45871;PMS5003;32333;55.844;-3.210;2023-02-27T14:00:56;0;0;
45871;PMS5003;32333;55.844;-3.210;2023-02-27T14:03:27;0;0;
45871;PMS5003;32333;55.844;-3.210;2023-02-27T14:05:59;0;0;
45871;PMS5003;32333;55.844;-3.210;2023-02-27T14:08:31;0;0;
45871;PMS5003;32333;55.844;-3.210;2023-02-27T14:11:14;0;0;
45871;PMS5003;32333;55.844;-3.210;2023-02-27T14:14:38;0;0;
45871;PMS5003;32333;55.844;-3.210;2023-02-27T14:17:10;1;0;
45871;PMS5003;32333;55.844;-3.210;2023-02-27T14:19:43;0;0;
45871;PMS5003;32333;55.844;-3.210;2023-02-27T14:23:27;0;0;
45871;PMS5003;32333;55.844;-3.210;2023-02-27T14:25:56;0;0;
45871;PMS5003;32333;55.844;-3.210;2023-02-27T14:28:33;0;0;
45871;PMS5003;32333;55.844;-3.210;2023-02-27T14:31:17;0;0;
45871;PMS5003;32333;55.844;-3.210;2023-02-27T14:33:47;0;0;
45871;PMS5003;32333;55.844;-3.210;2023-02-27T14:36:18;1;1;
45871;PMS5003;32333;55.844;-3.210;2023-02-27T14:38:48;0;0;
45871;PMS5003;32333;55.844;-3.210;2023-02-27T14:41:23;1;0;
45871;PMS5003;32333;55.844;-3.210;2023-02-27T14:44:36;0;0;
45871;PMS5003;32333;55.844;-3.210;2023-02-27T14:47:07;0;0;
45871;PMS5003;32333;55.844;-3.210;2023-02-27T14:49:43;0;0;
45871;PMS5003;32333;55.844;-3.210;2023-02-27T14:52:13;0;0;
45871;PMS5003;32333;55.844;-3.210;2023-02-27T14:54:46;0;0;
45871;PMS5003;32333;55.844;-3.210;2023-02-27T14:57:15;0;0;
45871;PMS5003;32333;55.844;-3.210;2023-02-27T14:59:44;0;0;
45871;PMS5003;32333;55.844;-3.210;2023-02-27T15:02:22;0;0;
45871;PMS5003;32333;55.844;-3.210;2023-02-27T15:04:53;0;0;
45871;PMS5003;32333;55.844;-3.210;2023-02-27T15:07:37;1;0;
45871;PMS5003;32333;55.844;-3.210;2023-02-27T15:10:06;0;0;
45871;PMS5003;32333;55.844;-3.210;2023-02-27T15:14:36;0;0;
45871;PMS5003;32333;55.844;-3.210;2023-02-27T15:17:13;0;0;
45871;PMS5003;32333;55.844;-3.210;2023-02-27T15:19:45;0;0;
45871;PMS5003;32333;55.844;-3.210;2023-02-27T15:22:15;0;0;
45871;PMS5003;32333;55.844;-3.210;2023-02-27T15:24:45;0;0;
45871;PMS5003;32333;55.844;-3.210;2023-02-27T15:27:15;0;0;
45871;PMS5003;32333;55.844;-3.210;2023-02-27T15:29:46;0;0;
45871;PMS5003;32333;55.844;-3.210;2023-02-27T15:32:39;0;0;
45871;PMS5003;32333;55.844;-3.210;2023-02-27T15:35:11;1;1;
45871;PMS5003;32333;55.844;-3.210;2023-02-27T15:37:44;0;0;
45871;PMS5003;32333;55.844;-3.210;2023-02-27T15:40:18;0;0;
45871;PMS5003;32333;55.844;-3.210;2023-02-27T15:44:36;1;1;
45871;PMS5003;32333;55.844;-3.210;2023-02-27T15:47:06;0;0;
45871;PMS5003;32333;55.844;-3.210;2023-02-27T15:49:38;0;0;
45871;PMS5003;32333;55.844;-3.210;2023-02-27T15:52:11;0;0;
45871;PMS5003;32333;55.844;-3.210;2023-02-27T15:54:45;0;0;
45871;PMS5003;32333;55.844;-3.210;2023-02-27T15:57:17;0;0;
45871;PMS5003;32333;55.844;-3.210;2023-02-27T15:59:46;0;0;
45871;PMS5003;32333;55.844;-3.210;2023-02-27T16:02:18;0;0;
45871;PMS5003;32333;55.844;-3.210;2023-02-27T16:04:47;0;0;
45871;PMS5003;32333;55.844;-3.210;2023-02-27T16:07:18;0;0;
45871;PMS5003;32333;55.844;-3.210;2023-02-27T16:09:48;0;0;
45871;PMS5003;32333;55.844;-3.210;2023-02-27T16:14:36;0;0;
45871;PMS5003;32333;55.844;-3.210;2023-02-27T16:17:20;0;0;
45871;PMS5003;32333;55.844;-3.210;2023-02-27T16:19:51;0;0;
45871;PMS5003;32333;55.844;-3.210;2023-02-27T16:22:20;0;0;
45871;PMS5003;32333;55.844;-3.210;2023-02-27T16:24:51;0;0;
45871;PMS5003;32333;55.844;-3.210;2023-02-27T16:27:21;0;0;
45871;PMS5003;32333;55.844;-3.210;2023-02-27T16:29:49;0;0;
45871;PMS5003;32333;55.844;-3.210;2023-02-27T16:32:20;1;0;
45871;PMS5003;32333;55.844;-3.210;2023-02-27T16:34:58;0;0;
45871;PMS5003;32333;55.844;-3.210;2023-02-27T16:37:31;0;0;
45871;PMS5003;32333;55.844;-3.210;2023-02-27T16:40:04;0;0;
45871;PMS5003;32333;55.844;-3.210;2023-02-27T16:44:35;0;0;
45871;PMS5003;32333;55.844;-3.210;2023-02-27T16:47:03;0;0;
45871;PMS5003;32333;55.844;-3.210;2023-02-27T16:49:31;0;0;
45871;PMS5003;32333;55.844;-3.210;2023-02-27T16:52:00;0;0;
45871;PMS5003;32333;55.844;-3.210;2023-02-27T16:54:28;0;0;
45871;PMS5003;32333;55.844;-3.210;2023-02-27T16:56:55;0;0;
45871;PMS5003;32333;55.844;-3.210;2023-02-27T16:59:26;0;0;
45871;PMS5003;32333;55.844;-3.210;2023-02-27T17:01:55;0;0;
45871;PMS5003;32333;55.844;-3.210;2023-02-27T17:04:24;0;0;
45871;PMS5003;32333;55.844;-3.210;2023-02-27T17:06:52;0;0;
45871;PMS5003;32333;55.844;-3.210;2023-02-27T17:09:22;0;0;
45871;PMS5003;32333;55.844;-3.210;2023-02-27T17:11:49;0;0;
45871;PMS5003;32333;55.844;-3.210;2023-02-27T17:14:35;0;0;
45871;PMS5003;32333;55.844;-3.210;2023-02-27T17:17:03;0;0;
45871;PMS5003;32333;55.844;-3.210;2023-02-27T17:19:30;0;0;
45871;PMS5003;32333;55.844;-3.210;2023-02-27T17:21:58;0;0;
45871;PMS5003;32333;55.844;-3.210;2023-02-27T17:24:26;0;0;
45871;PMS5003;32333;55.844;-3.210;2023-02-27T17:26:53;0;0;
45871;PMS5003;32333;55.844;-3.210;2023-02-27T17:29:21;0;0;
45871;PMS5003;32333;55.844;-3.210;2023-02-27T17:31:50;0;0;
45871;PMS5003;32333;55.844;-3.210;2023-02-27T17:34:18;0;0;
45871;PMS5003;32333;55.844;-3.210;2023-02-27T17:36:46;0;0;
45871;PMS5003;32333;55.844;-3.210;2023-02-27T17:39:14;0;0;